createdAt,value
2024-04-22T00:00:48.390Z,56.79
2024-04-22T00:01:48.649Z,56.07
2024-04-22T00:02:48.897Z,56.26
2024-04-22T00:03:49.027Z,56.24
2024-04-22T00:04:49.342Z,56.31
2024-04-22T00:05:49.508Z,56.39
2024-04-22T00:06:49.739Z,56.42
2024-04-22T00:07:50.015Z,56.54
2024-04-22T00:08:50.246Z,56.43
2024-04-22T00:09:50.480Z,56.68
2024-04-22T00:10:50.803Z,56.76
2024-04-22T00:11:51.049Z,56.50
2024-04-22T00:12:51.229Z,56.49
2024-04-22T00:13:51.459Z,56.68
2024-04-22T00:14:51.763Z,56.60
2024-04-22T00:15:51.991Z,56.44
2024-04-22T00:16:52.376Z,56.41
2024-04-22T00:17:52.541Z,56.64
2024-04-22T00:18:52.797Z,56.58
2024-04-22T00:19:53.058Z,56.30
2024-04-22T00:20:53.291Z,54.95
2024-04-22T00:21:53.571Z,55.48
2024-04-22T00:22:53.803Z,56.32
2024-04-22T00:23:54.540Z,56.72
2024-04-22T00:24:54.383Z,56.78
2024-04-22T00:25:54.600Z,56.76
2024-04-22T00:26:54.824Z,56.77
2024-04-22T00:27:55.131Z,57.03
2024-04-22T00:28:55.398Z,57.43
2024-04-22T00:29:55.601Z,57.52
2024-04-22T00:30:55.914Z,57.74
2024-04-22T00:31:56.153Z,57.62
2024-04-22T00:32:56.356Z,57.48
2024-04-22T00:33:56.587Z,57.29
2024-04-22T00:34:56.756Z,57.34
2024-04-22T00:35:57.009Z,57.00
2024-04-22T00:36:57.244Z,56.83
2024-04-22T00:37:57.480Z,56.52
2024-04-22T00:38:57.641Z,56.50
2024-04-22T00:39:57.861Z,56.49
2024-04-22T00:40:58.102Z,56.64
2024-04-22T00:41:58.333Z,56.60
2024-04-22T00:42:58.536Z,56.66
2024-04-22T00:43:58.769Z,56.50
2024-04-22T00:44:59.054Z,56.61
2024-04-22T00:45:59.268Z,56.77
2024-04-22T00:46:59.598Z,56.84
2024-04-22T00:47:59.835Z,57.04
2024-04-22T00:49:00.039Z,56.73
2024-04-22T00:50:00.298Z,56.76
2024-04-22T00:51:00.531Z,56.96
2024-04-22T00:52:00.777Z,56.91
2024-04-22T00:53:00.988Z,57.07
2024-04-22T00:54:01.268Z,57.21
2024-04-22T00:55:01.485Z,57.41
2024-04-22T00:56:01.719Z,57.33
2024-04-22T00:57:01.923Z,57.37
2024-04-22T00:58:02.144Z,57.12
2024-04-22T00:59:02.410Z,57.15
2024-04-22T01:00:02.592Z,57.22
2024-04-22T01:01:02.872Z,57.23
2024-04-22T01:02:03.049Z,57.36
2024-04-22T01:03:03.305Z,57.44
2024-04-22T01:04:03.540Z,57.24
2024-04-22T01:05:03.777Z,57.18
2024-04-22T01:06:04.048Z,56.86
2024-04-22T01:07:04.404Z,56.68
2024-04-22T01:08:04.674Z,56.66
2024-04-22T01:09:04.798Z,56.73
2024-04-22T01:10:05.115Z,56.60
2024-04-22T01:11:05.246Z,56.65
2024-04-22T01:12:05.485Z,56.68
2024-04-22T01:13:05.705Z,56.85
2024-04-22T01:14:05.990Z,56.90
2024-04-22T01:15:06.144Z,56.60
2024-04-22T01:16:06.461Z,56.71
2024-04-22T01:17:06.690Z,56.61
2024-04-22T01:18:06.922Z,56.76
2024-04-22T01:19:07.222Z,56.72
2024-04-22T01:20:07.369Z,56.73
2024-04-22T01:21:07.650Z,56.68
2024-04-22T01:22:07.893Z,56.84
2024-04-22T01:23:08.041Z,56.76
2024-04-22T01:24:08.300Z,56.74
2024-04-22T01:25:08.543Z,56.74
2024-04-22T01:26:08.757Z,56.79
2024-04-22T01:27:09.019Z,56.69
2024-04-22T01:28:09.249Z,56.75
2024-04-22T01:29:09.432Z,56.86
2024-04-22T01:30:09.663Z,56.96
2024-04-22T01:31:09.929Z,57.14
2024-04-22T01:32:10.189Z,57.10
2024-04-22T01:33:10.487Z,57.01
2024-04-22T01:34:10.691Z,57.03
2024-04-22T01:35:10.892Z,57.23
2024-04-22T01:36:11.067Z,57.34
2024-04-22T01:37:11.389Z,57.27
2024-04-22T01:38:11.583Z,57.13
2024-04-22T01:39:11.807Z,57.09
2024-04-22T01:40:12.131Z,57.15
2024-04-22T01:41:12.355Z,57.21
2024-04-22T01:42:12.603Z,57.13
2024-04-22T01:43:12.886Z,57.06
2024-04-22T01:44:13.115Z,57.21
2024-04-22T01:45:13.403Z,57.23
2024-04-22T01:46:13.672Z,57.23
2024-04-22T01:47:13.939Z,57.33
2024-04-22T01:48:14.109Z,57.45
2024-04-22T01:49:14.395Z,57.50
2024-04-22T01:50:14.612Z,57.61
2024-04-22T01:51:14.851Z,57.66
2024-04-22T01:52:15.223Z,57.66
2024-04-22T01:53:15.366Z,57.58
2024-04-22T01:54:15.735Z,57.51
2024-04-22T01:55:15.914Z,57.51
2024-04-22T01:56:16.170Z,57.73
2024-04-22T01:57:16.435Z,57.81
2024-04-22T01:58:16.659Z,57.88
2024-04-22T01:59:16.885Z,57.77
2024-04-22T02:00:17.136Z,57.49
2024-04-22T02:01:17.493Z,57.39
2024-04-22T02:02:17.695Z,57.43
2024-04-22T02:03:17.908Z,57.55
2024-04-22T02:04:18.150Z,57.45
2024-04-22T02:05:18.327Z,57.09
2024-04-22T02:06:18.590Z,57.16
2024-04-22T02:07:18.896Z,57.37
2024-04-22T02:08:19.132Z,57.53
2024-04-22T02:09:19.305Z,57.45
2024-04-22T02:10:23.516Z,57.23
2024-04-22T02:11:19.624Z,57.35
2024-04-22T02:12:19.540Z,57.44
2024-04-22T02:13:19.542Z,57.30
2024-04-22T02:14:19.520Z,57.36
2024-04-22T02:15:19.531Z,57.07
2024-04-22T02:16:19.505Z,56.84
2024-04-22T02:17:19.492Z,56.59
2024-04-22T02:18:19.493Z,56.61
2024-04-22T02:19:19.483Z,56.66
2024-04-22T02:20:19.450Z,56.71
2024-04-22T02:21:19.430Z,56.66
2024-04-22T02:22:19.441Z,56.42
2024-04-22T02:23:19.429Z,56.39
2024-04-22T02:24:19.493Z,56.08
2024-04-22T02:25:19.573Z,56.02
2024-04-22T02:26:19.588Z,56.19
2024-04-22T02:27:19.661Z,56.08
2024-04-22T02:28:19.801Z,56.13
2024-04-22T02:29:19.760Z,56.29
2024-04-22T02:30:19.825Z,56.42
2024-04-22T02:31:19.935Z,56.65
2024-04-22T02:32:19.918Z,56.71
2024-04-22T02:33:20.083Z,56.63
2024-04-22T02:34:20.037Z,56.57
2024-04-22T02:35:20.098Z,56.53
2024-04-22T02:36:20.131Z,56.47
2024-04-22T02:37:20.209Z,56.17
2024-04-22T02:38:20.263Z,56.12
2024-04-22T02:39:20.317Z,56.10
2024-04-22T02:40:20.422Z,56.20
2024-04-22T02:41:20.455Z,56.27
2024-04-22T02:42:20.507Z,56.28
2024-04-22T02:43:20.589Z,56.08
2024-04-22T02:44:20.590Z,56.15
2024-04-22T02:45:20.644Z,56.17
2024-04-22T02:46:20.864Z,55.95
2024-04-22T02:47:21.049Z,56.05
2024-04-22T02:48:21.328Z,55.94
2024-04-22T02:49:21.535Z,56.03
2024-04-22T02:50:21.720Z,56.12
2024-04-22T02:51:21.920Z,56.10
2024-04-22T02:52:22.196Z,56.31
2024-04-22T02:53:22.382Z,56.09
2024-04-22T02:54:22.613Z,56.20
2024-04-22T02:55:22.830Z,56.30
2024-04-22T02:56:23.050Z,56.41
2024-04-22T02:57:23.272Z,56.04
2024-04-22T02:58:23.565Z,55.99
2024-04-22T02:59:23.689Z,55.95
2024-04-22T03:00:23.896Z,56.17
2024-04-22T03:01:24.137Z,56.18
2024-04-22T03:02:24.466Z,56.22
2024-04-22T03:03:24.631Z,56.14
2024-04-22T03:04:24.874Z,56.27
2024-04-22T03:05:25.100Z,56.31
2024-04-22T03:06:25.276Z,56.32
2024-04-22T03:07:25.572Z,56.25
2024-04-22T03:08:25.786Z,56.48
2024-04-22T03:09:25.926Z,56.48
2024-04-22T03:10:26.218Z,56.77
2024-04-22T03:11:26.491Z,56.57
2024-04-22T03:12:26.634Z,56.33
2024-04-22T03:13:26.987Z,56.65
2024-04-22T03:14:27.140Z,56.66
2024-04-22T03:15:27.384Z,56.82
2024-04-22T03:16:27.699Z,56.72
2024-04-22T03:17:27.972Z,56.66
2024-04-22T03:18:28.136Z,56.55
2024-04-22T03:19:28.389Z,56.61
2024-04-22T03:20:28.627Z,56.41
2024-04-22T03:21:28.854Z,56.35
2024-04-22T03:22:29.141Z,56.35
2024-04-22T03:23:29.302Z,56.23
2024-04-22T03:24:29.507Z,56.21
2024-04-22T03:25:29.757Z,56.10
2024-04-22T03:26:29.959Z,56.18
2024-04-22T03:27:30.208Z,56.47
2024-04-22T03:28:30.448Z,56.31
2024-04-22T03:29:30.643Z,56.31
2024-04-22T03:30:30.877Z,56.37
2024-04-22T03:31:31.149Z,56.41
2024-04-22T03:32:31.426Z,56.67
2024-04-22T03:33:31.576Z,56.85
2024-04-22T03:34:31.833Z,56.85
2024-04-22T03:35:32.039Z,56.69
2024-04-22T03:36:32.270Z,56.49
2024-04-22T03:37:32.538Z,56.39
2024-04-22T03:38:32.727Z,56.34
2024-04-22T03:39:32.960Z,56.53
2024-04-22T03:40:33.210Z,56.56
2024-04-22T03:41:34.088Z,56.52
2024-04-22T03:42:33.457Z,56.47
2024-04-22T03:43:33.533Z,56.39
2024-04-22T03:44:33.566Z,56.37
2024-04-22T03:45:33.588Z,56.46
2024-04-22T03:46:33.640Z,56.49
2024-04-22T03:47:33.749Z,56.49
2024-04-22T03:48:33.707Z,56.38
2024-04-22T03:49:33.755Z,56.38
2024-04-22T03:50:33.780Z,56.30
2024-04-22T03:51:34.577Z,56.25
2024-04-22T03:52:33.891Z,56.36
2024-04-22T03:53:33.876Z,56.53
2024-04-22T03:54:33.924Z,56.47
2024-04-22T03:55:33.958Z,56.63
2024-04-22T03:56:33.961Z,56.58
2024-04-22T03:57:34.022Z,56.54
2024-04-22T03:58:34.099Z,56.44
2024-04-22T03:59:34.062Z,56.63
2024-04-22T04:00:34.124Z,56.77
2024-04-22T04:01:34.191Z,56.78
2024-04-22T04:02:34.176Z,56.53
2024-04-22T04:03:34.278Z,56.65
2024-04-22T04:04:34.322Z,56.84
2024-04-22T04:05:34.320Z,56.62
2024-04-22T04:06:34.300Z,56.53
2024-04-22T04:07:34.396Z,56.75
2024-04-22T04:08:34.375Z,56.62
2024-04-22T04:09:34.401Z,56.58
2024-04-22T04:10:34.499Z,56.41
2024-04-22T04:11:34.519Z,56.31
2024-04-22T04:12:34.518Z,56.49
2024-04-22T04:13:34.575Z,56.49
2024-04-22T04:14:34.588Z,56.45
2024-04-22T04:15:34.634Z,56.46
2024-04-22T04:16:34.752Z,56.46
2024-04-22T04:17:34.819Z,56.44
2024-04-22T04:18:34.798Z,56.42
2024-04-22T04:19:34.892Z,56.42
2024-04-22T04:20:34.896Z,56.62
2024-04-22T04:21:34.931Z,56.56
2024-04-22T04:22:34.995Z,56.47
2024-04-22T04:23:35.018Z,56.65
2024-04-22T04:24:35.054Z,56.95
2024-04-22T04:25:35.145Z,56.90
2024-04-22T04:26:35.156Z,56.73
2024-04-22T04:27:35.167Z,56.59
2024-04-22T04:28:35.274Z,56.72
2024-04-22T04:29:35.205Z,57.00
2024-04-22T04:30:35.244Z,56.97
2024-04-22T04:31:35.348Z,56.88
2024-04-22T04:32:35.407Z,56.72
2024-04-22T04:33:35.326Z,56.43
2024-04-22T04:34:35.387Z,56.42
2024-04-22T04:35:35.365Z,56.47
2024-04-22T04:36:35.390Z,56.45
2024-04-22T04:37:35.444Z,56.34
2024-04-22T04:38:35.447Z,56.19
2024-04-22T04:39:35.472Z,56.20
2024-04-22T04:40:35.558Z,56.24
2024-04-22T04:41:35.543Z,56.38
2024-04-22T04:42:35.559Z,56.53
2024-04-22T04:43:35.617Z,56.61
2024-04-22T04:44:35.598Z,56.78
2024-04-22T04:45:42.895Z,57.12
2024-04-22T04:46:42.987Z,57.05
2024-04-22T04:47:43.263Z,57.04
2024-04-22T04:48:43.391Z,56.97
2024-04-22T04:49:43.750Z,56.87
2024-04-22T04:50:43.818Z,56.70
2024-04-22T04:51:44.044Z,56.60
2024-04-22T04:52:44.305Z,56.57
2024-04-22T04:53:44.506Z,56.66
2024-04-22T04:54:44.752Z,56.51
2024-04-22T04:55:45.024Z,56.44
2024-04-22T04:56:45.175Z,56.21
2024-04-22T04:57:45.390Z,56.04
2024-04-22T04:58:45.658Z,56.05
2024-04-22T04:59:45.861Z,56.27
2024-04-22T05:00:46.194Z,56.23
2024-04-22T05:01:46.487Z,56.50
2024-04-22T05:02:46.595Z,56.58
2024-04-22T05:03:46.802Z,56.40
2024-04-22T05:04:47.091Z,56.34
2024-04-22T05:05:47.260Z,56.42
2024-04-22T05:06:47.487Z,56.47
2024-04-22T05:07:47.823Z,56.37
2024-04-22T05:08:48.017Z,56.57
2024-04-22T05:09:48.254Z,56.59
2024-04-22T05:10:48.625Z,56.65
2024-04-22T05:11:48.792Z,56.80
2024-04-22T05:12:48.970Z,56.76
2024-04-22T05:13:49.238Z,57.01
2024-04-22T05:14:49.424Z,56.91
2024-04-22T05:15:49.615Z,56.52
2024-04-22T05:16:49.874Z,56.47
2024-04-22T05:17:50.080Z,56.38
2024-04-22T05:18:50.308Z,56.44
2024-04-22T05:19:50.515Z,55.96
2024-04-22T05:20:50.672Z,55.77
2024-04-22T05:21:50.894Z,55.71
2024-04-22T05:22:51.103Z,55.62
2024-04-22T05:23:51.270Z,55.63
2024-04-22T05:24:51.501Z,55.57
2024-04-22T05:25:51.737Z,55.31
2024-04-22T05:26:51.881Z,55.31
2024-04-22T05:27:52.066Z,55.50
2024-04-22T05:28:52.399Z,55.47
2024-04-22T05:29:52.548Z,55.46
2024-04-22T05:30:52.746Z,55.31
2024-04-22T05:31:52.939Z,55.39
2024-04-22T05:32:53.144Z,55.50
2024-04-22T05:33:53.355Z,55.52
2024-04-22T05:34:53.535Z,55.50
2024-04-22T05:35:53.836Z,55.24
2024-04-22T05:36:54.062Z,55.36
2024-04-22T05:37:54.229Z,55.39
2024-04-22T05:38:54.406Z,55.30
2024-04-22T05:39:54.649Z,55.39
2024-04-22T05:40:54.878Z,55.31
2024-04-22T05:41:55.034Z,55.20
2024-04-22T05:42:55.183Z,55.17
2024-04-22T05:43:55.360Z,55.17
2024-04-22T05:44:55.603Z,55.28
2024-04-22T05:45:55.802Z,55.09
2024-04-22T05:46:56.011Z,54.86
2024-04-22T05:47:56.307Z,54.70
2024-04-22T05:48:56.462Z,54.85
2024-04-22T05:49:56.708Z,55.04
2024-04-22T05:50:56.810Z,54.92
2024-04-22T05:51:57.037Z,55.13
2024-04-22T05:52:57.271Z,55.25
2024-04-22T05:53:57.457Z,55.25
2024-04-22T05:54:57.701Z,55.16
2024-04-22T05:55:57.900Z,54.88
2024-04-22T05:56:58.089Z,54.89
2024-04-22T05:57:58.336Z,54.97
2024-04-22T05:58:58.517Z,55.18
2024-04-22T05:59:58.775Z,55.29
2024-04-22T06:00:58.985Z,55.24
2024-04-22T06:01:59.304Z,55.21
2024-04-22T06:02:59.469Z,55.18
2024-04-22T06:03:59.678Z,55.16
2024-04-22T06:05:00.004Z,55.29
2024-04-22T06:06:00.236Z,55.51
2024-04-22T06:07:00.423Z,55.60
2024-04-22T06:08:00.649Z,55.57
2024-04-22T06:09:00.816Z,55.58
2024-04-22T06:10:01.091Z,55.60
2024-04-22T06:11:01.346Z,55.72
2024-04-22T06:12:10.881Z,55.44
2024-04-22T06:13:02.619Z,55.38
2024-04-22T06:14:01.496Z,55.32
2024-04-22T06:15:01.524Z,55.37
2024-04-22T06:16:01.610Z,55.41
2024-04-22T06:17:01.618Z,55.58
2024-04-22T06:18:01.541Z,55.45
2024-04-22T06:19:01.498Z,54.75
2024-04-22T06:20:01.522Z,54.73
2024-04-22T06:21:01.547Z,54.78
2024-04-22T06:22:01.565Z,54.82
2024-04-22T06:23:01.614Z,55.06
2024-04-22T06:24:01.618Z,55.32
2024-04-22T06:25:01.640Z,55.13
2024-04-22T06:26:01.681Z,55.24
2024-04-22T06:27:01.667Z,55.29
2024-04-22T06:28:01.650Z,55.32
2024-04-22T06:29:01.664Z,55.39
2024-04-22T06:30:01.720Z,54.90
2024-04-22T06:31:01.778Z,54.57
2024-04-22T06:32:01.816Z,54.47
2024-04-22T06:33:01.837Z,54.49
2024-04-22T06:34:01.806Z,54.67
2024-04-22T06:35:01.780Z,54.69
2024-04-22T06:36:01.820Z,54.81
2024-04-22T06:37:01.849Z,55.13
2024-04-22T06:38:01.831Z,54.97
2024-04-22T06:39:01.871Z,54.83
2024-04-22T06:40:01.914Z,54.73
2024-04-22T06:41:01.892Z,54.60
2024-04-22T06:42:01.904Z,54.40
2024-04-22T06:43:23.953Z,53.81
2024-04-22T06:44:01.963Z,54.04
2024-04-22T06:45:01.978Z,53.58
2024-04-22T06:46:01.999Z,53.45
2024-04-22T06:47:02.140Z,53.63
2024-04-22T06:48:02.483Z,54.02
2024-04-22T06:49:02.116Z,54.03
2024-04-22T06:50:02.101Z,54.20
2024-04-22T06:51:02.118Z,54.23
2024-04-22T06:52:02.205Z,54.10
2024-04-22T06:53:02.140Z,54.11
2024-04-22T06:54:02.248Z,54.29
2024-04-22T07:20:13.916Z,57.08
2024-04-22T07:20:49.960Z,56.00
2024-04-22T07:21:49.185Z,55.68
2024-04-22T07:22:49.944Z,55.73
2024-04-22T07:23:49.225Z,55.55
2024-04-22T07:24:57.288Z,55.14
2024-04-22T07:25:50.943Z,55.10
2024-04-22T07:26:49.332Z,54.01
2024-04-22T07:27:49.139Z,53.47
2024-04-22T07:28:49.268Z,53.19
2024-04-22T07:29:49.139Z,53.09
2024-04-22T07:30:49.141Z,52.88
2024-04-22T07:31:49.188Z,52.81
2024-04-22T07:32:49.239Z,53.05
2024-04-22T07:33:49.194Z,52.44
2024-04-22T07:34:49.176Z,52.85
2024-04-22T07:35:49.191Z,53.26
2024-04-22T07:36:49.133Z,52.64
2024-04-22T07:37:49.268Z,52.93
2024-04-22T07:38:49.135Z,52.69
2024-04-22T07:39:51.859Z,52.95
2024-04-22T07:40:49.292Z,52.16
2024-04-22T07:41:49.203Z,52.39
2024-04-22T07:42:49.103Z,52.60
2024-04-22T07:43:49.119Z,52.56
2024-04-22T07:44:49.136Z,52.03
2024-04-22T07:45:49.126Z,52.05
2024-04-22T07:46:49.138Z,51.94
2024-04-22T07:47:49.153Z,51.81
2024-04-22T07:48:50.062Z,52.07
2024-04-22T07:49:49.036Z,52.03
2024-04-22T07:50:48.988Z,51.86
2024-04-22T07:51:49.052Z,51.83
2024-04-22T07:52:48.993Z,51.45
2024-04-22T07:53:48.941Z,51.50
2024-04-22T07:54:48.935Z,50.79
2024-04-22T07:55:48.988Z,49.90
2024-04-22T07:56:50.186Z,49.75
2024-04-22T07:57:48.963Z,49.86
2024-04-22T07:58:49.078Z,50.10
2024-04-22T07:59:49.110Z,50.14
2024-04-22T08:00:49.142Z,49.74
2024-04-22T08:01:49.305Z,49.67
2024-04-22T08:02:49.360Z,49.82
2024-04-22T08:03:49.524Z,49.15
2024-04-22T08:04:49.712Z,48.57
2024-04-22T08:05:49.908Z,48.63
2024-04-22T08:06:50.074Z,48.82
2024-04-22T08:15:12.716Z,49.87
2024-04-22T08:15:48.748Z,48.43
2024-04-22T08:16:47.856Z,48.19
2024-04-22T08:17:46.277Z,48.15
2024-04-22T08:19:13.531Z,48.57
2024-04-22T08:19:47.176Z,48.89
2024-04-22T08:20:48.047Z,48.84
2024-04-22T08:21:47.353Z,48.61
2024-04-22T08:25:19.321Z,50.45
2024-04-22T08:25:57.007Z,48.68
2024-04-22T08:26:54.925Z,48.02
2024-04-22T08:27:55.256Z,48.03
2024-04-22T08:29:22.012Z,48.11
2024-04-22T08:29:55.218Z,48.44
2024-04-22T08:30:55.286Z,48.38
2024-04-22T08:31:54.998Z,47.93
2024-04-22T08:32:55.044Z,47.97
2024-04-22T08:33:55.021Z,47.81
2024-04-22T08:34:54.972Z,47.82
2024-04-22T08:35:54.969Z,48.02
2024-04-22T08:36:55.467Z,48.02
2024-04-22T08:37:54.937Z,47.85
2024-04-22T08:38:54.917Z,47.89
2024-04-22T08:39:54.933Z,48.19
2024-04-22T08:40:54.936Z,47.45
2024-04-22T08:41:54.884Z,47.31
2024-04-22T08:42:54.862Z,47.27
2024-04-22T08:43:54.874Z,47.56
2024-04-22T08:44:54.841Z,47.28
2024-04-22T08:45:54.834Z,47.31
2024-04-22T08:46:55.620Z,47.16
2024-04-22T08:47:55.002Z,46.89
2024-04-22T08:48:54.783Z,47.05
2024-04-22T08:49:54.788Z,46.96
2024-04-22T08:50:54.755Z,46.95
2024-04-22T08:51:54.735Z,46.63
2024-04-22T08:52:56.759Z,46.92
2024-04-22T08:53:54.708Z,47.23
2024-04-22T08:54:54.740Z,47.25
2024-04-22T08:55:54.797Z,46.86
2024-04-22T08:56:54.823Z,46.48
2024-04-22T08:57:54.849Z,46.65
2024-04-22T08:58:54.898Z,46.77
2024-04-22T08:59:54.875Z,46.79
2024-04-22T09:00:54.998Z,46.79
2024-04-22T09:01:55.521Z,46.27
2024-04-22T09:02:54.978Z,46.09
2024-04-22T09:03:55.489Z,46.39
2024-04-22T09:04:55.200Z,46.51
2024-04-22T09:05:55.095Z,46.67
2024-04-22T09:06:55.059Z,46.65
2024-04-22T09:07:55.258Z,46.88
2024-04-22T09:08:55.081Z,47.15
2024-04-22T09:10:11.138Z,46.75
2024-04-22T09:11:27.148Z,46.30
2024-04-22T09:12:08.406Z,46.11
2024-04-22T09:12:56.018Z,46.35
2024-04-22T09:13:55.158Z,46.62
2024-04-22T09:14:55.039Z,46.48
2024-04-22T09:15:55.113Z,46.35
2024-04-22T09:16:54.981Z,46.33
2024-04-22T09:17:55.074Z,46.09
2024-04-22T09:18:54.945Z,46.12
2024-04-22T09:19:54.994Z,45.88
2024-04-22T09:20:55.092Z,46.20
2024-04-22T09:21:54.833Z,46.23
2024-04-22T09:22:54.889Z,45.82
2024-04-22T09:23:56.622Z,46.08
2024-04-22T09:24:54.692Z,46.10
2024-04-22T09:25:54.695Z,45.86
2024-04-22T09:26:55.724Z,46.19
2024-04-22T09:27:54.599Z,46.26
2024-04-22T09:28:54.642Z,46.02
2024-04-22T09:29:54.562Z,45.61
2024-04-22T09:30:54.525Z,46.15
2024-04-22T09:31:54.743Z,46.11
2024-04-22T09:32:54.778Z,46.19
2024-04-22T09:33:54.732Z,46.32
2024-04-22T09:34:54.599Z,46.32
2024-04-22T09:35:54.576Z,46.03
2024-04-22T09:36:54.406Z,45.81
2024-04-22T09:37:54.402Z,45.52
2024-04-22T09:38:54.399Z,45.47
2024-04-22T09:39:54.383Z,45.43
2024-04-22T09:40:54.405Z,45.74
2024-04-22T09:41:54.437Z,45.80
2024-04-22T09:42:54.433Z,45.48
2024-04-22T09:43:57.888Z,45.41
2024-04-22T09:44:54.463Z,45.53
2024-04-22T09:45:54.610Z,45.73
2024-04-22T09:46:54.456Z,45.93
2024-04-22T09:47:54.474Z,45.49
2024-04-22T09:48:55.178Z,45.77
2024-04-22T09:49:54.561Z,46.21
2024-04-22T09:50:54.278Z,46.05
2024-04-22T09:51:54.226Z,45.95
2024-04-22T09:52:54.233Z,45.53
2024-04-22T09:53:54.398Z,45.62
2024-04-22T09:54:54.197Z,45.63
2024-04-22T09:55:54.161Z,45.45
2024-04-22T09:56:54.086Z,45.20
2024-04-22T09:57:54.067Z,45.17
2024-04-22T09:58:54.126Z,45.35
2024-04-22T09:59:54.101Z,45.45
2024-04-22T10:00:54.071Z,45.65
2024-04-22T10:01:54.132Z,45.69
2024-04-22T10:02:54.225Z,45.76
2024-04-22T10:03:54.137Z,45.86
2024-04-22T10:04:54.210Z,45.93
2024-04-22T10:05:54.387Z,45.35
2024-04-22T10:06:53.985Z,45.23
2024-04-22T10:07:54.061Z,45.21
2024-04-22T10:08:53.995Z,45.23
2024-04-22T10:09:53.856Z,44.57
2024-04-22T10:10:54.664Z,44.87
2024-04-22T10:11:53.984Z,45.08
2024-04-22T10:12:53.779Z,44.80
2024-04-22T10:13:53.729Z,44.72
2024-04-22T10:14:53.716Z,44.50
2024-04-22T10:15:53.822Z,44.44
2024-04-22T10:16:54.094Z,45.07
2024-04-22T10:17:54.363Z,45.22
2024-04-22T10:18:54.837Z,45.15
2024-04-22T10:19:55.093Z,45.17
2024-04-22T10:20:55.002Z,45.01
2024-04-22T10:21:55.234Z,44.63
2024-04-22T10:22:55.435Z,44.15
2024-04-22T10:23:56.501Z,44.15
2024-04-22T10:24:55.689Z,44.40
2024-04-22T10:25:55.700Z,44.33
2024-04-22T10:27:04.846Z,44.75
2024-04-22T10:27:56.620Z,44.89
2024-04-22T10:28:55.619Z,45.34
2024-04-22T10:29:55.735Z,45.21
2024-04-22T10:30:55.575Z,45.10
2024-04-22T10:31:56.575Z,45.16
2024-04-22T10:32:55.586Z,45.12
2024-04-22T10:33:55.561Z,45.25
2024-04-22T10:34:55.531Z,45.58
2024-04-22T10:35:55.443Z,45.56
2024-04-22T10:36:57.331Z,45.55
2024-04-22T10:37:55.454Z,45.29
2024-04-22T10:38:55.363Z,45.11
2024-04-22T10:39:55.347Z,45.19
2024-04-22T10:40:55.382Z,45.00
2024-04-22T10:41:55.375Z,45.11
2024-04-22T10:42:55.313Z,45.32
2024-04-22T10:43:55.337Z,45.09
2024-04-22T10:44:55.258Z,44.98
2024-04-22T10:45:55.235Z,45.34
2024-04-22T10:46:55.256Z,45.30
2024-04-22T10:48:05.276Z,45.30
2024-04-22T10:48:56.210Z,45.41
2024-04-22T10:49:55.247Z,45.51
2024-04-22T10:50:55.098Z,45.88
2024-04-22T10:51:56.072Z,45.65
2024-04-22T10:52:55.080Z,45.50
2024-04-22T10:53:55.207Z,45.47
2024-04-22T10:54:55.017Z,45.00
2024-04-22T10:55:54.993Z,45.10
2024-04-22T10:56:54.949Z,45.30
2024-04-22T10:57:54.919Z,44.92
2024-04-22T10:58:54.962Z,44.56
2024-04-22T10:59:54.892Z,44.67
2024-04-22T11:00:54.913Z,44.87
2024-04-22T11:01:54.910Z,45.00
2024-04-22T11:02:55.897Z,45.34
2024-04-22T11:03:54.838Z,45.19
2024-04-22T11:04:55.057Z,45.47
2024-04-22T11:05:54.792Z,45.87
2024-04-22T11:06:54.779Z,45.85
2024-04-22T11:07:54.807Z,45.93
2024-04-22T11:08:54.738Z,45.95
2024-04-22T11:09:54.695Z,46.02
2024-04-22T11:10:54.756Z,45.83
2024-04-22T11:11:54.767Z,45.92
2024-04-22T11:12:54.587Z,46.05
2024-04-22T11:13:54.520Z,45.65
2024-04-22T11:14:54.497Z,45.54
2024-04-22T11:15:54.513Z,45.44
2024-04-22T11:16:54.479Z,45.51
2024-04-22T11:17:54.462Z,45.23
2024-04-22T11:18:54.509Z,45.16
2024-04-22T11:19:54.734Z,45.16
2024-04-22T11:20:55.033Z,45.35
2024-04-22T11:21:55.061Z,45.33
2024-04-22T11:22:55.412Z,44.96
2024-04-22T11:23:55.673Z,44.85
2024-04-22T11:24:55.833Z,44.83
2024-04-22T11:25:56.073Z,44.31
2024-04-22T11:26:56.291Z,44.66
2024-04-22T11:27:56.509Z,44.91
2024-04-22T11:28:56.778Z,45.13
2024-04-22T11:29:57.039Z,45.22
2024-04-22T11:30:57.272Z,45.49
2024-04-22T11:31:57.515Z,45.28
2024-04-22T11:32:57.729Z,45.19
2024-04-22T11:33:57.873Z,44.99
2024-04-22T11:34:58.097Z,45.24
2024-04-22T11:35:58.349Z,45.36
2024-04-22T11:36:58.568Z,45.55
2024-04-22T11:37:58.823Z,45.82
2024-04-22T11:38:59.054Z,45.70
2024-04-22T11:39:59.259Z,45.65
2024-04-22T11:40:59.541Z,45.38
2024-04-22T11:41:59.707Z,45.24
2024-04-22T11:42:59.956Z,45.22
2024-04-22T11:44:00.119Z,45.32
2024-04-22T11:45:02.839Z,45.37
2024-04-22T11:46:00.301Z,45.11
2024-04-22T11:47:00.387Z,44.85
2024-04-22T11:48:00.343Z,44.55
2024-04-22T11:49:00.187Z,44.75
2024-04-22T11:50:00.171Z,44.58
2024-04-22T11:51:00.089Z,44.53
2024-04-22T11:52:00.057Z,44.66
2024-04-22T11:53:05.625Z,44.71
2024-04-22T11:54:00.972Z,44.73
2024-04-22T11:54:59.929Z,44.64
2024-04-22T11:55:59.908Z,44.49
2024-04-22T11:56:59.856Z,44.28
2024-04-22T11:57:59.787Z,44.08
2024-04-22T11:58:59.784Z,44.08
2024-04-22T11:59:59.732Z,44.18
2024-04-22T12:00:59.770Z,44.55
2024-04-22T12:01:59.690Z,44.45
2024-04-22T12:03:01.480Z,44.50
2024-04-22T12:03:59.707Z,44.29
2024-04-22T12:04:59.981Z,43.91
2024-04-22T12:05:59.693Z,43.72
2024-04-22T12:06:59.630Z,43.66
2024-04-22T12:07:59.659Z,43.40
2024-04-22T12:09:03.036Z,43.44
2024-04-22T12:10:01.521Z,43.40
2024-04-22T12:11:00.588Z,43.27
2024-04-22T12:11:59.618Z,43.50
2024-04-22T12:12:59.606Z,43.40
2024-04-22T12:13:59.551Z,43.50
2024-04-22T12:15:00.997Z,43.48
2024-04-22T12:15:59.626Z,43.76
2024-04-22T12:16:59.531Z,43.59
2024-04-22T12:17:59.495Z,43.65
2024-04-22T12:18:59.599Z,43.78
2024-04-22T12:19:59.387Z,44.00
2024-04-22T12:21:00.481Z,44.25
2024-04-22T12:21:59.555Z,44.56
2024-04-22T12:22:59.641Z,44.43
2024-04-22T12:23:59.643Z,44.53
2024-04-22T12:24:59.618Z,44.57
2024-04-22T12:25:59.682Z,44.80
2024-04-22T12:27:01.548Z,44.82
2024-04-22T12:28:09.631Z,45.01
2024-04-22T12:29:00.919Z,44.99
2024-04-22T12:29:59.846Z,45.31
2024-04-22T12:30:59.804Z,45.32
2024-04-22T12:31:59.785Z,45.57
2024-04-22T12:32:59.898Z,45.52
2024-04-22T12:34:06.797Z,45.87
2024-04-22T12:35:00.772Z,45.85
2024-04-22T12:35:59.629Z,45.61
2024-04-22T12:36:59.587Z,45.49
2024-04-22T12:37:59.727Z,45.45
2024-04-22T12:38:59.537Z,45.25
2024-04-22T12:39:59.482Z,45.29
2024-04-22T12:40:59.492Z,45.72
2024-04-22T12:41:59.444Z,46.02
2024-04-22T12:43:00.194Z,46.18
2024-04-22T12:44:02.841Z,46.67
2024-04-22T12:44:59.357Z,46.79
2024-04-22T12:45:59.342Z,46.68
2024-04-22T12:46:59.348Z,46.56
2024-04-22T12:47:59.412Z,46.30
2024-04-22T12:48:59.263Z,46.32
2024-04-22T12:49:59.281Z,46.37
2024-04-22T12:50:59.843Z,46.50
2024-04-22T12:51:59.111Z,46.54
2024-04-22T12:52:59.112Z,46.60
2024-04-22T12:53:59.059Z,46.53
2024-04-22T12:54:59.984Z,46.51
2024-04-22T12:55:58.991Z,46.70
2024-04-22T12:56:58.884Z,46.64
2024-04-22T12:57:58.836Z,46.70
2024-04-22T12:58:59.515Z,46.79
2024-04-22T12:59:58.940Z,46.87
2024-04-22T13:00:58.847Z,46.67
2024-04-22T13:01:59.290Z,46.36
2024-04-22T13:02:59.444Z,46.16
2024-04-22T13:03:59.663Z,45.98
2024-04-22T13:04:59.903Z,46.03
2024-04-22T13:06:00.480Z,46.05
2024-04-22T13:07:01.187Z,46.24
2024-04-22T13:08:00.241Z,46.44
2024-04-22T13:09:02.475Z,46.24
2024-04-22T13:10:00.466Z,46.01
2024-04-22T13:11:00.498Z,45.98
2024-04-22T13:12:00.294Z,46.37
2024-04-22T13:13:02.223Z,46.70
2024-04-22T13:14:00.472Z,46.74
2024-04-22T13:15:00.246Z,46.72
2024-04-22T13:16:00.085Z,46.92
2024-04-22T13:17:00.024Z,47.02
2024-04-22T13:18:00.039Z,46.84
2024-04-22T13:19:01.263Z,46.37
2024-04-22T13:20:00.048Z,46.33
2024-04-22T13:21:00.056Z,46.39
2024-04-22T13:22:00.069Z,46.34
2024-04-22T13:23:00.052Z,46.05
2024-04-22T13:24:00.312Z,46.20
2024-04-22T13:25:03.185Z,46.48
2024-04-22T13:26:00.795Z,47.13
2024-04-22T13:27:00.508Z,47.32
2024-04-22T13:28:00.391Z,47.70